Terminal Aerodrome Forecast
Issued by NWS

Home | Current Version | Previous Version | Text Only | Print | Product List | Glossary On
Versions: 1 2 3 4 5 6 7 8 9 10 11 12 13 14
000
FTUS45 KRIW 280536
TAFCPR
TAF
KCPR 280536Z 2806/0106 22018G30KT P6SM BKN100
     FM280800 22018G30KT P6SM SCT150
     FM010100 24014G20KT P6SM SCT150=

USA.gov is the U.S. government's official web portal to all federal, state and local government web resources and services.